sensor_id;sensor_type;location;lat;lon;timestamp;temperature;humidity
17381;DHT22;8808;52.478;13.378;2023-06-19T00:01:13;18.50;99.90
17381;DHT22;8808;52.478;13.378;2023-06-19T00:03:40;18.40;99.90
17381;DHT22;8808;52.478;13.378;2023-06-19T00:06:09;18.50;99.90
17381;DHT22;8808;52.478;13.378;2023-06-19T00:08:37;18.40;99.90
17381;DHT22;8808;52.478;13.378;2023-06-19T00:11:06;18.30;99.90
17381;DHT22;8808;52.478;13.378;2023-06-19T00:13:34;18.30;99.90
17381;DHT22;8808;52.478;13.378;2023-06-19T00:16:01;18.40;99.90
17381;DHT22;8808;52.478;13.378;2023-06-19T00:18:28;18.50;99.90
17381;DHT22;8808;52.478;13.378;2023-06-19T00:20:55;18.70;99.90
17381;DHT22;8808;52.478;13.378;2023-06-19T00:23:24;18.80;99.90
17381;DHT22;8808;52.478;13.378;2023-06-19T00:25:50;18.80;99.90
17381;DHT22;8808;52.478;13.378;2023-06-19T00:28:17;18.80;99.90
17381;DHT22;8808;52.478;13.378;2023-06-19T00:30:47;18.80;99.90
17381;DHT22;8808;52.478;13.378;2023-06-19T00:33:14;18.90;99.90
17381;DHT22;8808;52.478;13.378;2023-06-19T00:35:41;18.80;99.90
17381;DHT22;8808;52.478;13.378;2023-06-19T00:38:09;18.80;99.90
17381;DHT22;8808;52.478;13.378;2023-06-19T00:40:37;18.80;99.90
17381;DHT22;8808;52.478;13.378;2023-06-19T00:43:04;18.80;99.90
17381;DHT22;8808;52.478;13.378;2023-06-19T00:45:31;19.00;99.90
17381;DHT22;8808;52.478;13.378;2023-06-19T00:47:59;19.00;99.90
17381;DHT22;8808;52.478;13.378;2023-06-19T00:50:28;19.10;99.90
17381;DHT22;8808;52.478;13.378;2023-06-19T00:52:56;19.00;99.90
17381;DHT22;8808;52.478;13.378;2023-06-19T00:55:26;18.90;99.90
17381;DHT22;8808;52.478;13.378;2023-06-19T00:57:56;18.90;99.90
17381;DHT22;8808;52.478;13.378;2023-06-19T01:00:24;18.90;99.90
17381;DHT22;8808;52.478;13.378;2023-06-19T01:02:59;18.80;99.90
17381;DHT22;8808;52.478;13.378;2023-06-19T01:05:26;18.80;99.90
17381;DHT22;8808;52.478;13.378;2023-06-19T01:07:59;18.70;99.90
17381;DHT22;8808;52.478;13.378;2023-06-19T01:10:30;18.80;99.90
17381;DHT22;8808;52.478;13.378;2023-06-19T01:13:02;18.80;99.90
17381;DHT22;8808;52.478;13.378;2023-06-19T01:15:32;18.90;99.90
17381;DHT22;8808;52.478;13.378;2023-06-19T01:17:59;18.80;99.90
17381;DHT22;8808;52.478;13.378;2023-06-19T01:20:27;18.60;99.90
17381;DHT22;8808;52.478;13.378;2023-06-19T01:22:56;18.70;99.90
17381;DHT22;8808;52.478;13.378;2023-06-19T01:25:23;18.80;99.90
17381;DHT22;8808;52.478;13.378;2023-06-19T01:27:51;18.70;99.90
17381;DHT22;8808;52.478;13.378;2023-06-19T01:30:18;18.50;99.90
17381;DHT22;8808;52.478;13.378;2023-06-19T01:32:50;18.40;99.90
17381;DHT22;8808;52.478;13.378;2023-06-19T01:35:21;18.40;99.90
17381;DHT22;8808;52.478;13.378;2023-06-19T01:37:50;18.50;99.90
17381;DHT22;8808;52.478;13.378;2023-06-19T01:40:20;18.40;99.90
17381;DHT22;8808;52.478;13.378;2023-06-19T01:42:52;18.30;99.90
17381;DHT22;8808;52.478;13.378;2023-06-19T01:45:20;18.30;99.90
17381;DHT22;8808;52.478;13.378;2023-06-19T01:47:47;18.30;99.90
17381;DHT22;8808;52.478;13.378;2023-06-19T01:50:14;18.40;99.90
17381;DHT22;8808;52.478;13.378;2023-06-19T01:52:42;18.40;99.90
17381;DHT22;8808;52.478;13.378;2023-06-19T01:55:09;18.40;99.90
17381;DHT22;8808;52.478;13.378;2023-06-19T01:57:37;18.40;99.90
17381;DHT22;8808;52.478;13.378;2023-06-19T02:00:05;18.30;99.90
17381;DHT22;8808;52.478;13.378;2023-06-19T02:02:33;18.30;99.90
17381;DHT22;8808;52.478;13.378;2023-06-19T02:05:00;18.30;99.90
17381;DHT22;8808;52.478;13.378;2023-06-19T02:07:27;18.40;99.90
17381;DHT22;8808;52.478;13.378;2023-06-19T02:09:54;18.40;99.90
17381;DHT22;8808;52.478;13.378;2023-06-19T02:12:21;18.40;99.90
17381;DHT22;8808;52.478;13.378;2023-06-19T02:14:49;18.30;99.90
17381;DHT22;8808;52.478;13.378;2023-06-19T02:17:16;18.40;99.90
17381;DHT22;8808;52.478;13.378;2023-06-19T02:19:43;18.30;99.90
17381;DHT22;8808;52.478;13.378;2023-06-19T02:22:10;18.40;99.90
17381;DHT22;8808;52.478;13.378;2023-06-19T02:24:37;18.30;99.90
17381;DHT22;8808;52.478;13.378;2023-06-19T02:27:05;18.30;99.90
17381;DHT22;8808;52.478;13.378;2023-06-19T02:29:32;18.30;99.90
17381;DHT22;8808;52.478;13.378;2023-06-19T02:32:01;18.30;99.90
17381;DHT22;8808;52.478;13.378;2023-06-19T02:34:28;18.30;99.90
17381;DHT22;8808;52.478;13.378;2023-06-19T02:36:55;18.30;99.90
17381;DHT22;8808;52.478;13.378;2023-06-19T02:39:22;18.20;99.90
17381;DHT22;8808;52.478;13.378;2023-06-19T02:41:49;18.20;99.90
17381;DHT22;8808;52.478;13.378;2023-06-19T02:44:16;18.20;99.90
17381;DHT22;8808;52.478;13.378;2023-06-19T02:46:43;18.20;99.90
17381;DHT22;8808;52.478;13.378;2023-06-19T02:49:11;18.20;99.90
17381;DHT22;8808;52.478;13.378;2023-06-19T02:51:38;18.20;99.90
17381;DHT22;8808;52.478;13.378;2023-06-19T02:54:05;18.30;99.90
17381;DHT22;8808;52.478;13.378;2023-06-19T02:56:32;18.20;99.90
17381;DHT22;8808;52.478;13.378;2023-06-19T02:58:59;18.20;99.90
17381;DHT22;8808;52.478;13.378;2023-06-19T03:01:26;18.20;99.90
17381;DHT22;8808;52.478;13.378;2023-06-19T03:03:53;18.20;99.90
17381;DHT22;8808;52.478;13.378;2023-06-19T03:06:21;18.30;99.90
17381;DHT22;8808;52.478;13.378;2023-06-19T03:08:48;18.30;99.90
17381;DHT22;8808;52.478;13.378;2023-06-19T03:11:15;18.10;99.90
17381;DHT22;8808;52.478;13.378;2023-06-19T03:13:47;18.20;99.90
17381;DHT22;8808;52.478;13.378;2023-06-19T03:16:14;18.10;99.90
17381;DHT22;8808;52.478;13.378;2023-06-19T03:18:41;18.20;99.90
17381;DHT22;8808;52.478;13.378;2023-06-19T03:21:10;18.20;99.90
17381;DHT22;8808;52.478;13.378;2023-06-19T03:23:38;18.20;99.90
17381;DHT22;8808;52.478;13.378;2023-06-19T03:26:06;18.20;99.90
17381;DHT22;8808;52.478;13.378;2023-06-19T03:28:33;18.20;99.90
17381;DHT22;8808;52.478;13.378;2023-06-19T03:31:00;18.30;99.90
17381;DHT22;8808;52.478;13.378;2023-06-19T03:33:27;18.30;99.90
17381;DHT22;8808;52.478;13.378;2023-06-19T03:35:55;18.30;99.90
17381;DHT22;8808;52.478;13.378;2023-06-19T03:38:22;18.30;99.90
17381;DHT22;8808;52.478;13.378;2023-06-19T03:40:50;18.50;99.90
17381;DHT22;8808;52.478;13.378;2023-06-19T03:43:17;18.50;99.90
17381;DHT22;8808;52.478;13.378;2023-06-19T03:45:44;18.50;99.90
17381;DHT22;8808;52.478;13.378;2023-06-19T03:48:11;18.60;99.90
17381;DHT22;8808;52.478;13.378;2023-06-19T03:50:38;18.60;99.90
17381;DHT22;8808;52.478;13.378;2023-06-19T03:53:05;18.60;99.90
17381;DHT22;8808;52.478;13.378;2023-06-19T03:55:32;18.60;99.90
17381;DHT22;8808;52.478;13.378;2023-06-19T03:58:01;18.70;99.90
17381;DHT22;8808;52.478;13.378;2023-06-19T04:00:28;18.70;99.90
17381;DHT22;8808;52.478;13.378;2023-06-19T04:02:55;18.70;99.90
17381;DHT22;8808;52.478;13.378;2023-06-19T04:05:22;18.70;99.90
17381;DHT22;8808;52.478;13.378;2023-06-19T04:07:50;18.70;99.90
17381;DHT22;8808;52.478;13.378;2023-06-19T04:10:17;18.60;99.90
17381;DHT22;8808;52.478;13.378;2023-06-19T04:12:44;18.60;99.90
17381;DHT22;8808;52.478;13.378;2023-06-19T04:15:13;18.60;99.90
17381;DHT22;8808;52.478;13.378;2023-06-19T04:17:40;18.70;99.90
17381;DHT22;8808;52.478;13.378;2023-06-19T04:20:07;18.70;99.90
17381;DHT22;8808;52.478;13.378;2023-06-19T04:22:36;18.80;99.90
17381;DHT22;8808;52.478;13.378;2023-06-19T04:25:05;18.70;99.90
17381;DHT22;8808;52.478;13.378;2023-06-19T04:27:32;18.70;99.90
17381;DHT22;8808;52.478;13.378;2023-06-19T04:30:00;18.70;99.90
17381;DHT22;8808;52.478;13.378;2023-06-19T04:32:28;18.70;99.90
17381;DHT22;8808;52.478;13.378;2023-06-19T04:34:55;18.80;99.90
17381;DHT22;8808;52.478;13.378;2023-06-19T04:37:23;18.80;99.90
17381;DHT22;8808;52.478;13.378;2023-06-19T04:39:49;18.70;99.90
17381;DHT22;8808;52.478;13.378;2023-06-19T04:42:17;18.80;99.90
17381;DHT22;8808;52.478;13.378;2023-06-19T04:44:46;18.80;99.90
17381;DHT22;8808;52.478;13.378;2023-06-19T04:47:13;18.80;99.90
17381;DHT22;8808;52.478;13.378;2023-06-19T04:49:42;18.80;99.90
17381;DHT22;8808;52.478;13.378;2023-06-19T04:52:09;18.80;99.90
17381;DHT22;8808;52.478;13.378;2023-06-19T04:54:36;18.80;99.90
17381;DHT22;8808;52.478;13.378;2023-06-19T04:57:04;18.80;99.90
17381;DHT22;8808;52.478;13.378;2023-06-19T04:59:32;18.80;99.90
17381;DHT22;8808;52.478;13.378;2023-06-19T05:01:59;18.80;99.90
17381;DHT22;8808;52.478;13.378;2023-06-19T05:04:26;18.80;99.90
17381;DHT22;8808;52.478;13.378;2023-06-19T05:06:54;18.80;99.90
17381;DHT22;8808;52.478;13.378;2023-06-19T05:09:21;18.80;99.90
17381;DHT22;8808;52.478;13.378;2023-06-19T05:11:48;18.80;99.90
17381;DHT22;8808;52.478;13.378;2023-06-19T05:14:15;18.90;99.90
17381;DHT22;8808;52.478;13.378;2023-06-19T05:16:43;18.90;99.90
17381;DHT22;8808;52.478;13.378;2023-06-19T05:19:10;19.00;99.90
17381;DHT22;8808;52.478;13.378;2023-06-19T05:21:37;19.00;99.90
17381;DHT22;8808;52.478;13.378;2023-06-19T05:24:05;19.00;99.90
17381;DHT22;8808;52.478;13.378;2023-06-19T05:26:32;19.00;99.90
17381;DHT22;8808;52.478;13.378;2023-06-19T05:28:59;19.00;99.90
17381;DHT22;8808;52.478;13.378;2023-06-19T05:31:27;19.00;99.90
17381;DHT22;8808;52.478;13.378;2023-06-19T05:33:54;19.00;99.90
17381;DHT22;8808;52.478;13.378;2023-06-19T05:36:21;19.10;99.90
17381;DHT22;8808;52.478;13.378;2023-06-19T05:38:49;19.10;99.90
17381;DHT22;8808;52.478;13.378;2023-06-19T05:41:17;19.10;99.90
17381;DHT22;8808;52.478;13.378;2023-06-19T05:43:44;19.20;99.90
17381;DHT22;8808;52.478;13.378;2023-06-19T05:46:11;19.20;99.90
17381;DHT22;8808;52.478;13.378;2023-06-19T05:48:38;19.20;99.90
17381;DHT22;8808;52.478;13.378;2023-06-19T05:51:05;19.30;99.90
17381;DHT22;8808;52.478;13.378;2023-06-19T05:53:32;19.30;99.90
17381;DHT22;8808;52.478;13.378;2023-06-19T05:55:59;19.30;99.90
17381;DHT22;8808;52.478;13.378;2023-06-19T05:58:27;19.30;99.90
17381;DHT22;8808;52.478;13.378;2023-06-19T06:00:54;19.40;99.90
17381;DHT22;8808;52.478;13.378;2023-06-19T06:03:23;19.40;99.90
17381;DHT22;8808;52.478;13.378;2023-06-19T06:05:50;19.40;99.90
17381;DHT22;8808;52.478;13.378;2023-06-19T06:08:17;19.40;99.90
17381;DHT22;8808;52.478;13.378;2023-06-19T06:10:44;19.40;99.90
17381;DHT22;8808;52.478;13.378;2023-06-19T06:13:11;19.40;99.90
17381;DHT22;8808;52.478;13.378;2023-06-19T06:15:39;19.50;99.90
17381;DHT22;8808;52.478;13.378;2023-06-19T06:18:06;19.50;99.90
17381;DHT22;8808;52.478;13.378;2023-06-19T06:20:33;19.50;99.90
17381;DHT22;8808;52.478;13.378;2023-06-19T06:23:00;19.50;99.90
17381;DHT22;8808;52.478;13.378;2023-06-19T06:25:27;19.60;99.90
17381;DHT22;8808;52.478;13.378;2023-06-19T06:27:54;19.60;99.90
17381;DHT22;8808;52.478;13.378;2023-06-19T06:30:21;19.60;99.90
17381;DHT22;8808;52.478;13.378;2023-06-19T06:32:50;19.70;99.90
17381;DHT22;8808;52.478;13.378;2023-06-19T06:35:17;19.70;99.90
17381;DHT22;8808;52.478;13.378;2023-06-19T06:37:44;19.70;99.90
17381;DHT22;8808;52.478;13.378;2023-06-19T06:40:12;19.70;99.90
17381;DHT22;8808;52.478;13.378;2023-06-19T06:42:39;19.70;99.90
17381;DHT22;8808;52.478;13.378;2023-06-19T06:45:07;19.80;99.90
17381;DHT22;8808;52.478;13.378;2023-06-19T06:47:34;19.80;99.90
17381;DHT22;8808;52.478;13.378;2023-06-19T06:50:03;19.80;99.90
17381;DHT22;8808;52.478;13.378;2023-06-19T06:52:30;19.80;99.90
17381;DHT22;8808;52.478;13.378;2023-06-19T06:54:57;19.80;99.90
17381;DHT22;8808;52.478;13.378;2023-06-19T06:57:24;19.80;99.90
17381;DHT22;8808;52.478;13.378;2023-06-19T06:59:52;19.80;99.90
17381;DHT22;8808;52.478;13.378;2023-06-19T07:02:19;19.90;99.90
17381;DHT22;8808;52.478;13.378;2023-06-19T07:04:45;19.90;99.90
17381;DHT22;8808;52.478;13.378;2023-06-19T07:07:14;19.90;99.90
17381;DHT22;8808;52.478;13.378;2023-06-19T07:09:41;19.90;99.90
17381;DHT22;8808;52.478;13.378;2023-06-19T07:12:08;19.90;99.90
17381;DHT22;8808;52.478;13.378;2023-06-19T07:14:35;20.00;99.90
17381;DHT22;8808;52.478;13.378;2023-06-19T07:17:02;20.00;99.90
17381;DHT22;8808;52.478;13.378;2023-06-19T07:19:31;20.10;99.90
17381;DHT22;8808;52.478;13.378;2023-06-19T07:21:59;20.10;99.90
17381;DHT22;8808;52.478;13.378;2023-06-19T07:24:27;20.20;99.90
17381;DHT22;8808;52.478;13.378;2023-06-19T07:26:54;20.30;99.90
17381;DHT22;8808;52.478;13.378;2023-06-19T07:29:22;20.40;99.90
17381;DHT22;8808;52.478;13.378;2023-06-19T07:31:49;20.40;99.90
17381;DHT22;8808;52.478;13.378;2023-06-19T07:34:15;20.50;99.90
17381;DHT22;8808;52.478;13.378;2023-06-19T07:36:43;20.60;99.90
17381;DHT22;8808;52.478;13.378;2023-06-19T07:39:09;20.60;99.90
17381;DHT22;8808;52.478;13.378;2023-06-19T07:41:38;20.70;99.90
17381;DHT22;8808;52.478;13.378;2023-06-19T07:44:05;20.80;99.90
17381;DHT22;8808;52.478;13.378;2023-06-19T07:46:32;20.80;99.90
17381;DHT22;8808;52.478;13.378;2023-06-19T07:48:59;20.90;99.90
17381;DHT22;8808;52.478;13.378;2023-06-19T07:51:26;21.00;99.90
17381;DHT22;8808;52.478;13.378;2023-06-19T07:56:20;21.30;99.90
17381;DHT22;8808;52.478;13.378;2023-06-19T08:16:00;21.60;99.90
17381;DHT22;8808;52.478;13.378;2023-06-19T08:18:27;21.50;99.90
17381;DHT22;8808;52.478;13.378;2023-06-19T08:20:54;21.60;99.90
17381;DHT22;8808;52.478;13.378;2023-06-19T08:23:21;21.60;99.90
17381;DHT22;8808;52.478;13.378;2023-06-19T08:25:48;21.60;99.90
17381;DHT22;8808;52.478;13.378;2023-06-19T08:28:16;21.60;99.90
17381;DHT22;8808;52.478;13.378;2023-06-19T08:30:44;21.60;99.90
17381;DHT22;8808;52.478;13.378;2023-06-19T08:33:13;21.60;99.90
17381;DHT22;8808;52.478;13.378;2023-06-19T08:35:40;21.60;99.90
17381;DHT22;8808;52.478;13.378;2023-06-19T08:38:07;21.50;99.90
17381;DHT22;8808;52.478;13.378;2023-06-19T08:40:34;21.60;99.90
17381;DHT22;8808;52.478;13.378;2023-06-19T08:43:01;21.60;99.90
17381;DHT22;8808;52.478;13.378;2023-06-19T08:45:28;21.60;99.90
17381;DHT22;8808;52.478;13.378;2023-06-19T08:47:58;21.60;99.90
17381;DHT22;8808;52.478;13.378;2023-06-19T08:50:26;21.60;99.90
17381;DHT22;8808;52.478;13.378;2023-06-19T08:52:55;21.70;99.90
17381;DHT22;8808;52.478;13.378;2023-06-19T08:55:22;21.80;99.90
17381;DHT22;8808;52.478;13.378;2023-06-19T08:57:49;21.80;99.90
17381;DHT22;8808;52.478;13.378;2023-06-19T09:00:23;21.90;99.90
17381;DHT22;8808;52.478;13.378;2023-06-19T09:02:51;21.90;99.90
17381;DHT22;8808;52.478;13.378;2023-06-19T09:05:19;22.00;99.90
17381;DHT22;8808;52.478;13.378;2023-06-19T09:07:57;22.10;99.90
17381;DHT22;8808;52.478;13.378;2023-06-19T09:10:24;22.20;99.90
17381;DHT22;8808;52.478;13.378;2023-06-19T09:12:58;22.20;99.90
17381;DHT22;8808;52.478;13.378;2023-06-19T09:15:28;22.20;99.90
17381;DHT22;8808;52.478;13.378;2023-06-19T09:18:03;22.20;99.90
17381;DHT22;8808;52.478;13.378;2023-06-19T09:20:30;22.20;99.90
17381;DHT22;8808;52.478;13.378;2023-06-19T09:22:59;22.30;99.90
17381;DHT22;8808;52.478;13.378;2023-06-19T09:25:27;22.20;99.90
17381;DHT22;8808;52.478;13.378;2023-06-19T09:27:54;22.30;99.90
17381;DHT22;8808;52.478;13.378;2023-06-19T09:30:21;22.40;99.90
17381;DHT22;8808;52.478;13.378;2023-06-19T09:32:49;22.40;99.90
17381;DHT22;8808;52.478;13.378;2023-06-19T09:35:16;22.40;99.90
17381;DHT22;8808;52.478;13.378;2023-06-19T09:37:45;22.40;99.90
17381;DHT22;8808;52.478;13.378;2023-06-19T09:40:14;22.40;99.90
17381;DHT22;8808;52.478;13.378;2023-06-19T09:42:43;22.40;99.90
17381;DHT22;8808;52.478;13.378;2023-06-19T09:45:11;22.40;99.90
17381;DHT22;8808;52.478;13.378;2023-06-19T09:47:43;22.40;99.90
17381;DHT22;8808;52.478;13.378;2023-06-19T09:50:12;22.40;99.90
17381;DHT22;8808;52.478;13.378;2023-06-19T09:52:40;22.50;99.90
17381;DHT22;8808;52.478;13.378;2023-06-19T09:55:08;22.50;99.90
17381;DHT22;8808;52.478;13.378;2023-06-19T09:57:40;22.50;99.90
17381;DHT22;8808;52.478;13.378;2023-06-19T10:00:09;22.40;99.90
17381;DHT22;8808;52.478;13.378;2023-06-19T10:02:39;22.50;99.90
17381;DHT22;8808;52.478;13.378;2023-06-19T10:05:07;22.60;99.90
17381;DHT22;8808;52.478;13.378;2023-06-19T10:07:38;22.60;99.90
17381;DHT22;8808;52.478;13.378;2023-06-19T10:10:07;22.60;99.90
17381;DHT22;8808;52.478;13.378;2023-06-19T10:12:40;22.60;99.90
17381;DHT22;8808;52.478;13.378;2023-06-19T10:15:12;22.60;99.90
17381;DHT22;8808;52.478;13.378;2023-06-19T10:17:43;22.60;99.90
17381;DHT22;8808;52.478;13.378;2023-06-19T10:20:25;22.70;99.90
17381;DHT22;8808;52.478;13.378;2023-06-19T10:23:04;22.80;99.90
17381;DHT22;8808;52.478;13.378;2023-06-19T10:25:33;22.80;99.90
17381;DHT22;8808;52.478;13.378;2023-06-19T10:28:02;22.90;99.90
17381;DHT22;8808;52.478;13.378;2023-06-19T10:30:31;23.00;99.90
17381;DHT22;8808;52.478;13.378;2023-06-19T10:33:00;23.00;99.90
17381;DHT22;8808;52.478;13.378;2023-06-19T10:35:36;23.00;99.90
17381;DHT22;8808;52.478;13.378;2023-06-19T10:38:03;23.00;99.90
17381;DHT22;8808;52.478;13.378;2023-06-19T10:40:30;22.90;99.90
17381;DHT22;8808;52.478;13.378;2023-06-19T10:42:57;23.00;99.90
17381;DHT22;8808;52.478;13.378;2023-06-19T10:45:26;23.00;99.90
17381;DHT22;8808;52.478;13.378;2023-06-19T10:47:54;23.10;99.90
17381;DHT22;8808;52.478;13.378;2023-06-19T10:50:22;23.00;99.90
17381;DHT22;8808;52.478;13.378;2023-06-19T10:52:53;23.10;99.90
17381;DHT22;8808;52.478;13.378;2023-06-19T10:55:21;23.30;99.90
17381;DHT22;8808;52.478;13.378;2023-06-19T10:57:49;23.50;99.90
17381;DHT22;8808;52.478;13.378;2023-06-19T11:00:24;23.60;99.90
17381;DHT22;8808;52.478;13.378;2023-06-19T11:02:52;23.60;99.90
17381;DHT22;8808;52.478;13.378;2023-06-19T11:05:20;23.60;99.90
17381;DHT22;8808;52.478;13.378;2023-06-19T11:07:51;23.60;99.90
17381;DHT22;8808;52.478;13.378;2023-06-19T11:10:19;23.70;99.90
17381;DHT22;8808;52.478;13.378;2023-06-19T11:12:48;23.80;99.90
17381;DHT22;8808;52.478;13.378;2023-06-19T11:15:15;23.80;99.90
17381;DHT22;8808;52.478;13.378;2023-06-19T11:17:43;23.80;99.90
17381;DHT22;8808;52.478;13.378;2023-06-19T11:20:11;23.70;99.90
17381;DHT22;8808;52.478;13.378;2023-06-19T11:22:39;23.60;99.90
17381;DHT22;8808;52.478;13.378;2023-06-19T11:25:08;23.70;99.90
17381;DHT22;8808;52.478;13.378;2023-06-19T11:27:38;23.70;99.90
17381;DHT22;8808;52.478;13.378;2023-06-19T11:30:06;23.70;99.90
17381;DHT22;8808;52.478;13.378;2023-06-19T11:32:36;23.60;99.90
17381;DHT22;8808;52.478;13.378;2023-06-19T11:35:10;23.60;99.90
17381;DHT22;8808;52.478;13.378;2023-06-19T11:37:39;23.60;99.90
17381;DHT22;8808;52.478;13.378;2023-06-19T11:40:07;23.70;99.90
17381;DHT22;8808;52.478;13.378;2023-06-19T11:42:48;23.80;99.90
17381;DHT22;8808;52.478;13.378;2023-06-19T11:45:15;23.80;99.90
17381;DHT22;8808;52.478;13.378;2023-06-19T11:47:44;24.00;99.90
17381;DHT22;8808;52.478;13.378;2023-06-19T11:50:13;24.00;99.90
17381;DHT22;8808;52.478;13.378;2023-06-19T11:52:43;24.00;99.90
17381;DHT22;8808;52.478;13.378;2023-06-19T11:55:11;24.20;99.90
17381;DHT22;8808;52.478;13.378;2023-06-19T11:57:38;24.40;99.90
17381;DHT22;8808;52.478;13.378;2023-06-19T12:00:14;24.40;99.90
17381;DHT22;8808;52.478;13.378;2023-06-19T12:02:41;24.70;99.90
17381;DHT22;8808;52.478;13.378;2023-06-19T12:05:08;24.50;99.90
17381;DHT22;8808;52.478;13.378;2023-06-19T12:07:37;24.50;99.90
17381;DHT22;8808;52.478;13.378;2023-06-19T12:10:05;24.40;99.90
17381;DHT22;8808;52.478;13.378;2023-06-19T12:12:35;24.50;99.90
17381;DHT22;8808;52.478;13.378;2023-06-19T12:15:05;24.40;99.90
17381;DHT22;8808;52.478;13.378;2023-06-19T12:17:32;24.60;99.90
17381;DHT22;8808;52.478;13.378;2023-06-19T12:19:59;24.50;99.90
17381;DHT22;8808;52.478;13.378;2023-06-19T12:22:26;24.80;99.90
17381;DHT22;8808;52.478;13.378;2023-06-19T12:24:55;24.90;99.90
17381;DHT22;8808;52.478;13.378;2023-06-19T12:27:22;25.00;99.90
17381;DHT22;8808;52.478;13.378;2023-06-19T12:29:49;25.00;99.90
17381;DHT22;8808;52.478;13.378;2023-06-19T12:32:16;25.30;99.90
17381;DHT22;8808;52.478;13.378;2023-06-19T12:34:43;25.20;99.90
17381;DHT22;8808;52.478;13.378;2023-06-19T12:37:13;25.30;99.90
17381;DHT22;8808;52.478;13.378;2023-06-19T12:39:40;25.50;99.90
17381;DHT22;8808;52.478;13.378;2023-06-19T12:42:09;25.80;99.90
17381;DHT22;8808;52.478;13.378;2023-06-19T12:44:38;25.70;99.90
17381;DHT22;8808;52.478;13.378;2023-06-19T12:47:06;25.70;99.90
17381;DHT22;8808;52.478;13.378;2023-06-19T12:49:34;25.20;99.90
17381;DHT22;8808;52.478;13.378;2023-06-19T12:52:01;25.90;99.90
17381;DHT22;8808;52.478;13.378;2023-06-19T12:54:27;25.80;99.90
17381;DHT22;8808;52.478;13.378;2023-06-19T12:56:55;26.10;99.90
17381;DHT22;8808;52.478;13.378;2023-06-19T12:59:23;26.30;99.90
17381;DHT22;8808;52.478;13.378;2023-06-19T13:04:17;26.20;99.90
17381;DHT22;8808;52.478;13.378;2023-06-19T13:06:44;25.80;99.90
17381;DHT22;8808;52.478;13.378;2023-06-19T13:09:11;25.70;99.90
17381;DHT22;8808;52.478;13.378;2023-06-19T13:11:39;25.60;99.90
17381;DHT22;8808;52.478;13.378;2023-06-19T13:14:05;26.00;99.90
17381;DHT22;8808;52.478;13.378;2023-06-19T13:16:34;26.00;99.90
17381;DHT22;8808;52.478;13.378;2023-06-19T13:19:01;26.30;99.90
17381;DHT22;8808;52.478;13.378;2023-06-19T13:21:28;25.60;99.90
17381;DHT22;8808;52.478;13.378;2023-06-19T13:23:55;26.10;99.90
17381;DHT22;8808;52.478;13.378;2023-06-19T13:26:22;25.90;99.90
17381;DHT22;8808;52.478;13.378;2023-06-19T13:28:49;25.50;99.90
17381;DHT22;8808;52.478;13.378;2023-06-19T13:31:17;25.80;99.90
17381;DHT22;8808;52.478;13.378;2023-06-19T13:33:45;26.20;99.90
17381;DHT22;8808;52.478;13.378;2023-06-19T13:36:12;26.00;99.90
17381;DHT22;8808;52.478;13.378;2023-06-19T13:38:39;25.60;99.90
17381;DHT22;8808;52.478;13.378;2023-06-19T13:41:06;25.90;99.90
17381;DHT22;8808;52.478;13.378;2023-06-19T13:43:33;26.30;99.90
17381;DHT22;8808;52.478;13.378;2023-06-19T13:46:00;26.50;99.90
17381;DHT22;8808;52.478;13.378;2023-06-19T13:48:30;26.50;99.90
17381;DHT22;8808;52.478;13.378;2023-06-19T13:50:59;26.50;99.90
17381;DHT22;8808;52.478;13.378;2023-06-19T13:53:26;26.40;99.90
17381;DHT22;8808;52.478;13.378;2023-06-19T13:55:54;26.40;99.90
17381;DHT22;8808;52.478;13.378;2023-06-19T13:58:21;26.30;99.90
17381;DHT22;8808;52.478;13.378;2023-06-19T14:00:48;26.20;99.90
17381;DHT22;8808;52.478;13.378;2023-06-19T14:03:15;26.10;99.90
17381;DHT22;8808;52.478;13.378;2023-06-19T14:05:42;26.00;99.90
17381;DHT22;8808;52.478;13.378;2023-06-19T14:08:10;26.00;99.90
17381;DHT22;8808;52.478;13.378;2023-06-19T14:10:38;26.00;99.90
17381;DHT22;8808;52.478;13.378;2023-06-19T14:13:04;26.20;99.90
17381;DHT22;8808;52.478;13.378;2023-06-19T14:15:32;25.90;99.90
17381;DHT22;8808;52.478;13.378;2023-06-19T14:18:05;26.10;99.90
17381;DHT22;8808;52.478;13.378;2023-06-19T14:20:31;25.90;99.90
17381;DHT22;8808;52.478;13.378;2023-06-19T14:22:59;25.90;99.90
17381;DHT22;8808;52.478;13.378;2023-06-19T14:25:27;25.70;99.90
17381;DHT22;8808;52.478;13.378;2023-06-19T14:27:54;25.70;99.90
17381;DHT22;8808;52.478;13.378;2023-06-19T14:30:21;26.10;99.90
17381;DHT22;8808;52.478;13.378;2023-06-19T14:32:48;26.00;99.90
17381;DHT22;8808;52.478;13.378;2023-06-19T14:35:15;25.60;99.90
17381;DHT22;8808;52.478;13.378;2023-06-19T14:37:43;25.70;99.90
17381;DHT22;8808;52.478;13.378;2023-06-19T14:40:10;25.90;99.90
17381;DHT22;8808;52.478;13.378;2023-06-19T14:42:38;25.90;99.90
17381;DHT22;8808;52.478;13.378;2023-06-19T14:45:06;26.10;99.90
17381;DHT22;8808;52.478;13.378;2023-06-19T14:47:33;26.40;99.90
17381;DHT22;8808;52.478;13.378;2023-06-19T14:50:00;26.40;99.50
17381;DHT22;8808;52.478;13.378;2023-06-19T14:52:28;26.30;99.10
17381;DHT22;8808;52.478;13.378;2023-06-19T14:54:55;25.90;99.90
17381;DHT22;8808;52.478;13.378;2023-06-19T14:57:24;26.00;99.90
17381;DHT22;8808;52.478;13.378;2023-06-19T14:59:52;26.00;99.90
17381;DHT22;8808;52.478;13.378;2023-06-19T15:02:19;26.30;99.10
17381;DHT22;8808;52.478;13.378;2023-06-19T15:04:46;26.20;99.30
17381;DHT22;8808;52.478;13.378;2023-06-19T15:07:13;26.40;99.50
17381;DHT22;8808;52.478;13.378;2023-06-19T15:09:40;26.30;98.80
17381;DHT22;8808;52.478;13.378;2023-06-19T15:12:08;26.50;98.30
17381;DHT22;8808;52.478;13.378;2023-06-19T15:14:35;25.40;98.50
17381;DHT22;8808;52.478;13.378;2023-06-19T15:17:05;26.00;98.90
17381;DHT22;8808;52.478;13.378;2023-06-19T15:19:35;26.10;98.40
17381;DHT22;8808;52.478;13.378;2023-06-19T15:22:03;26.00;98.60
17381;DHT22;8808;52.478;13.378;2023-06-19T15:24:30;26.10;98.20
17381;DHT22;8808;52.478;13.378;2023-06-19T15:26:57;25.70;98.90
17381;DHT22;8808;52.478;13.378;2023-06-19T15:29:26;25.90;98.40
17381;DHT22;8808;52.478;13.378;2023-06-19T15:31:53;26.10;98.50
17381;DHT22;8808;52.478;13.378;2023-06-19T15:34:21;26.30;97.40
17381;DHT22;8808;52.478;13.378;2023-06-19T15:36:48;26.30;96.90
17381;DHT22;8808;52.478;13.378;2023-06-19T15:39:15;26.20;97.40
17381;DHT22;8808;52.478;13.378;2023-06-19T15:41:44;26.20;97.00
17381;DHT22;8808;52.478;13.378;2023-06-19T15:44:13;26.10;96.80
17381;DHT22;8808;52.478;13.378;2023-06-19T15:46:40;26.30;96.10
17381;DHT22;8808;52.478;13.378;2023-06-19T15:49:07;26.20;95.80
17381;DHT22;8808;52.478;13.378;2023-06-19T15:51:35;26.00;96.80
17381;DHT22;8808;52.478;13.378;2023-06-19T15:54:02;25.90;96.70
17381;DHT22;8808;52.478;13.378;2023-06-19T15:56:30;25.90;97.50